Time;durP1;ratioP1;P1;durP2;ratioP2;P2;SDS_P1;SDS_P2;PMS_P1;PMS_P2;Temp;Humidity;BMP_temperature;BMP_pressure;BME280_temperature;BME280_humidity;BME280_pressure;Samples;Min_cycle;Max_cycle;Signal;HPM_P1;HPM_P2
2022/01/18 00:00:04;;;;;;;;;2.00;2.00;;;;;15.87;54.88;103873.13;4972837;28;9550;-73
2022/01/18 00:02:29;;;;;;;;;4.33;2.00;;;;;15.81;54.75;103873.75;4972303;28;9291;-73
2022/01/18 00:04:55;;;;;;;;;4.00;2.00;;;;;15.83;54.77;103879.97;4972840;28;9190;-73
2022/01/18 00:07:20;;;;;;;;;2.33;2.33;;;;;15.84;54.57;103879.16;4972852;28;8803;-72
2022/01/18 00:09:45;;;;;;;;;1.33;1.33;;;;;15.81;54.78;103880.75;4971423;28;9028;-73
2022/01/18 00:12:29;;;;;;;;;5.00;3.00;;;;;15.79;54.95;103883.28;4972526;28;8803;-73
2022/01/18 00:15:16;;;;;;;;;2.67;2.67;;;;;15.82;54.63;103882.56;4972406;28;9558;-74
2022/01/18 00:17:43;;;;;;;;;2.00;2.00;;;;;15.80;54.57;103881.56;4972090;28;9294;-73
2022/01/18 00:20:16;;;;;;;;;2.00;2.00;;;;;15.82;54.67;103879.94;4972500;28;9228;-73
2022/01/18 00:22:44;;;;;;;;;3.00;3.00;;;;;15.77;54.52;103882.31;4971561;28;9176;-74
2022/01/18 00:25:09;;;;;;;;;3.33;3.33;;;;;15.80;54.61;103882.47;4972757;28;9279;-73
2022/01/18 00:27:34;;;;;;;;;2.00;2.00;;;;;15.78;54.43;103891.13;4972356;28;9341;-74
2022/01/18 00:35:12;;;;;;;;;2.00;2.00;;;;;15.80;54.43;103900.91;4972210;28;9479;-73
2022/01/18 00:37:49;;;;;;;;;1.67;1.67;;;;;15.80;54.74;103903.53;4971685;28;8944;-73
2022/01/18 00:40:15;;;;;;;;;2.00;2.00;;;;;15.78;54.40;103907.81;4972765;28;8917;-73
2022/01/18 00:42:40;;;;;;;;;1.67;1.67;;;;;15.78;54.43;103901.69;4972060;28;10278;-73
2022/01/18 00:45:05;;;;;;;;;3.33;2.00;;;;;15.79;54.13;103900.81;4971436;28;8783;-72
2022/01/18 00:47:31;;;;;;;;;3.00;3.00;;;;;15.78;54.34;103901.69;4972306;28;9565;-72
2022/01/18 00:50:01;;;;;;;;;1.00;1.00;;;;;15.78;54.38;103899.91;4972093;28;8842;-73
2022/01/18 00:52:29;;;;;;;;;2.00;2.00;;;;;15.75;54.64;103901.50;4973275;28;8897;-73
2022/01/18 00:54:55;;;;;;;;;2.00;2.00;;;;;15.74;54.45;103897.09;4975718;28;9260;-73
2022/01/18 00:57:23;;;;;;;;;3.00;3.00;;;;;15.77;54.24;103895.50;4975045;28;9213;-73
2022/01/18 00:59:48;;;;;;;;;1.00;1.00;;;;;15.75;54.29;103883.97;4990042;23;8867;-74
2022/01/18 01:02:14;;;;;;;;;2.00;1.00;;;;;15.74;54.22;103892.72;4975074;28;9289;-73
2022/01/18 01:04:47;;;;;;;;;3.00;2.33;;;;;15.75;54.09;103885.69;4973952;28;8799;-72
2022/01/18 01:07:19;;;;;;;;;2.00;1.00;;;;;15.76;54.15;103891.06;4974663;28;9317;-73
2022/01/18 01:09:44;;;;;;;;;1.33;1.00;;;;;15.77;54.06;103891.97;4974245;28;9219;-73
2022/01/18 01:12:11;;;;;;;;;3.33;2.00;;;;;15.73;54.09;103887.38;4973713;28;9134;-72
2022/01/18 01:14:38;;;;;;;;;2.00;1.00;;;;;15.71;53.91;103889.91;4974769;28;8783;-72
2022/01/18 01:17:32;;;;;;;;;4.00;2.67;;;;;15.75;54.07;103891.88;4974432;28;9104;-74
2022/01/18 01:35:48;;;;;;;;;2.00;2.00;;;;;15.70;53.89;103874.06;4974781;28;9185;-72
2022/01/18 01:44:01;;;;;;;;;3.00;2.00;;;;;15.71;53.89;103882.00;4973728;28;9244;-73
2022/01/18 01:46:28;;;;;;;;;2.00;2.00;;;;;15.68;53.72;103878.31;4974187;28;9416;-73
2022/01/18 01:48:55;;;;;;;;;1.33;0.67;;;;;15.70;53.58;103890.75;4973245;28;9270;-73
2022/01/18 01:51:28;;;;;;;;;2.00;1.00;;;;;15.70;53.70;103892.50;4973959;28;9399;-73
2022/01/18 01:53:54;;;;;;;;;2.00;1.00;;;;;15.64;53.67;103887.81;4972775;28;9906;-73
2022/01/18 01:56:19;;;;;;;;;1.33;1.33;;;;;15.66;53.58;103891.44;4974150;28;9341;-74
2022/01/18 01:58:44;;;;;;;;;2.00;2.00;;;;;15.68;53.70;103897.66;4937974;28;1036468;-73
2022/01/18 02:01:09;;;;;;;;;1.33;1.33;;;;;15.68;53.63;103892.41;4974193;28;8827;-72
2022/01/18 02:03:35;;;;;;;;;2.33;1.00;;;;;15.70;53.49;103896.03;4974340;28;8784;-73
2022/01/18 02:06:00;;;;;;;;;1.00;1.00;;;;;15.69;53.70;103901.22;4974919;28;8813;-73
2022/01/18 02:08:25;;;;;;;;;1.67;1.00;;;;;15.68;53.58;103896.75;4974144;28;8772;-73
2022/01/18 02:10:51;;;;;;;;;1.67;1.67;;;;;15.66;53.52;103891.44;4974252;28;8807;-73
2022/01/18 02:13:16;;;;;;;;;2.33;1.00;;;;;15.67;53.58;103884.44;4974926;28;8799;-72
2022/01/18 02:16:08;;;;;;;;;1.00;1.00;;;;;15.68;53.56;103889.75;4973674;28;8865;-73
2022/01/18 02:24:04;;;;;;;;;2.67;1.00;;;;;15.69;53.51;103883.69;4973643;28;9097;-73
2022/01/18 02:26:29;;;;;;;;;1.33;1.33;;;;;15.64;53.25;103879.00;4974348;28;9125;-73
2022/01/18 02:28:59;;;;;;;;;0.67;0.67;;;;;15.64;53.37;103882.53;4973144;28;11522;-73
2022/01/18 02:31:24;;;;;;;;;0.00;0.00;;;;;15.65;53.50;103886.09;4974189;28;8818;-74
2022/01/18 02:33:49;;;;;;;;;1.00;0.00;;;;;15.64;53.37;103889.53;4974080;28;9209;-71
2022/01/18 02:36:14;;;;;;;;;2.00;2.00;;;;;15.68;53.32;103881.88;4973689;28;8862;-72
2022/01/18 02:38:40;;;;;;;;;1.67;0.33;;;;;15.65;53.08;103883.44;4974242;28;8858;-72
2022/01/18 02:41:06;;;;;;;;;2.00;0.67;;;;;15.67;53.43;103881.81;4974056;28;8811;-72
2022/01/18 02:43:55;;;;;;;;;1.00;1.00;;;;;15.62;53.37;103878.03;4973536;28;8783;-73
2022/01/18 02:46:21;;;;;;;;;1.00;1.00;;;;;15.65;53.14;103879.09;4974130;28;9214;-73
2022/01/18 02:48:46;;;;;;;;;0.00;0.00;;;;;15.64;53.36;103873.72;4973840;28;9369;-73
2022/01/18 02:51:11;;;;;;;;;1.00;1.00;;;;;15.64;53.18;103872.00;4973659;28;8819;-73
2022/01/18 02:54:00;;;;;;;;;2.00;1.00;;;;;15.61;53.23;103877.13;4973819;28;8803;-73
2022/01/18 02:56:36;;;;;;;;;2.00;1.00;;;;;15.60;53.27;103877.03;4973898;28;8803;-73
2022/01/18 02:59:13;;;;;;;;;1.00;1.00;;;;;15.65;52.99;103888.72;4972685;28;9104;-73
2022/01/18 03:04:22;;;;;;;;;2.00;0.33;;;;;15.59;53.07;103877.88;4973133;28;9163;-72
2022/01/18 03:06:48;;;;;;;;;1.00;0.00;;;;;15.58;53.30;103876.97;4973542;28;9200;-73
2022/01/18 03:09:13;;;;;;;;;1.00;1.00;;;;;15.62;53.00;103885.94;4973945;28;8796;-73
2022/01/18 03:11:39;;;;;;;;;0.00;0.00;;;;;15.57;53.09;103882.16;4973063;28;8787;-72
2022/01/18 03:14:04;;;;;;;;;1.00;1.00;;;;;15.61;52.99;103881.50;4973609;28;8779;-72
2022/01/18 03:16:30;;;;;;;;;1.33;1.33;;;;;15.56;52.99;103881.25;4972858;28;8804;-72
2022/01/18 03:18:55;;;;;;;;;0.00;0.00;;;;;15.61;53.17;103890.28;4972476;28;9559;-72
2022/01/18 03:21:20;;;;;;;;;0.00;0.00;;;;;15.61;52.84;103881.50;4973326;28;8767;-73
2022/01/18 03:23:52;;;;;;;;;1.00;1.00;;;;;15.60;52.88;103883.22;4973363;28;8850;-73
2022/01/18 03:26:18;;;;;;;;;0.33;0.00;;;;;15.59;52.87;103886.69;4973092;28;8805;-73
2022/01/18 03:28:44;;;;;;;;;1.00;0.33;;;;;15.60;52.92;103884.94;4973253;28;9185;-73
2022/01/18 03:31:09;;;;;;;;;0.33;0.33;;;;;15.58;53.11;103884.88;4973136;28;9386;-72
2022/01/18 03:33:35;;;;;;;;;1.00;1.00;;;;;15.58;52.93;103887.53;4972604;28;8801;-72
2022/01/18 03:36:01;;;;;;;;;0.00;0.00;;;;;15.58;52.83;103884.88;4973300;28;8912;-72
2022/01/18 03:38:30;;;;;;;;;3.00;0.00;;;;;15.60;52.94;103890.22;4973196;28;9285;-73
2022/01/18 03:41:02;;;;;;;;;1.00;1.00;;;;;15.57;53.20;103876.91;4972230;28;12292;-74
2022/01/18 03:43:32;;;;;;;;;1.00;1.00;;;;;15.59;52.84;103877.88;4973165;28;9336;-73
2022/01/18 03:46:02;;;;;;;;;0.00;0.00;;;;;15.54;52.75;103885.56;4973051;28;9260;-72
2022/01/18 03:48:35;;;;;;;;;2.00;1.00;;;;;15.57;52.84;103875.16;4972402;28;9329;-73
2022/01/18 03:51:02;;;;;;;;;1.33;1.00;;;;;15.60;52.68;103882.31;4972907;28;9359;-73
2022/01/18 03:53:27;;;;;;;;;0.67;0.67;;;;;15.57;52.73;103890.06;4972192;28;9110;-73
2022/01/18 03:55:53;;;;;;;;;0.00;0.00;;;;;15.57;52.88;103885.69;4972780;28;9193;-73
2022/01/18 03:58:21;;;;;;;;;0.00;0.00;;;;;15.54;52.75;103888.19;4972891;28;8814;-72
2022/01/18 04:00:50;;;;;;;;;1.00;0.00;;;;;15.54;52.76;103898.72;4971970;28;10052;-72
2022/01/18 04:03:17;;;;;;;;;0.00;0.00;;;;;15.53;52.74;103886.38;4972688;28;9273;-73
2022/01/18 04:05:42;;;;;;;;;0.00;0.00;;;;;15.56;52.49;103891.78;4972801;28;9319;-73
2022/01/18 04:08:07;;;;;;;;;0.67;0.00;;;;;15.55;52.73;103889.09;4972399;28;9112;-72
2022/01/18 04:10:33;;;;;;;;;1.33;1.00;;;;;15.54;53.03;103888.19;4972887;28;9028;-73
2022/01/18 04:12:59;;;;;;;;;0.00;0.00;;;;;15.51;52.66;103898.56;4972872;28;9615;-73
2022/01/18 04:15:24;;;;;;;;;1.00;1.00;;;;;15.51;52.86;103900.31;4971932;28;8788;-73
2022/01/18 04:26:51;;;;;;;;;0.33;0.33;;;;;15.47;52.56;103915.91;4972165;28;9506;-73
2022/01/18 04:28:47;;;;;;;;;0.67;0.67;;;;;15.52;52.61;103920.56;4971019;28;9331;-73
2022/01/18 04:31:12;;;;;;;;;0.67;0.67;;;;;15.53;52.17;103919.69;4972369;28;9377;-73
2022/01/18 04:33:38;;;;;;;;;0.50;0.50;;;;;15.51;52.67;103916.09;4972556;28;8783;-72
2022/01/18 04:36:06;;;;;;;;;0.00;0.00;;;;;15.53;52.51;103920.59;4972061;28;8795;-73
2022/01/18 04:38:31;;;;;;;;;0.00;0.00;;;;;15.47;52.36;103910.66;4972216;28;9223;-73
2022/01/18 04:41:06;;;;;;;;;1.00;1.00;;;;;15.51;52.41;103921.38;4972276;28;9105;-73
2022/01/18 04:48:53;;;;;;;;;0.00;0.00;;;;;15.46;52.55;103908.84;4971848;28;9963;-73
2022/01/18 04:51:21;;;;;;;;;0.00;0.00;;;;;15.50;52.28;103909.94;4971781;28;9324;-73
2022/01/18 04:53:52;;;;;;;;;0.00;0.00;;;;;15.48;52.48;103907.16;4972013;28;8838;-73
2022/01/18 04:56:27;;;;;;;;;0.00;0.00;;;;;15.46;52.24;103908.84;4972324;28;9205;-73
2022/01/18 04:58:53;;;;;;;;;0.00;0.00;;;;;15.47;52.42;103917.66;4971766;28;9337;-74
2022/01/18 05:01:18;;;;;;;;;0.00;0.00;;;;;15.48;52.22;103912.44;4971931;28;9356;-72
2022/01/18 05:03:44;;;;;;;;;0.00;0.00;;;;;15.50;51.96;103909.94;4971305;28;8783;-72
2022/01/18 05:06:12;;;;;;;;;0.00;0.00;;;;;15.51;52.10;103913.47;4972255;28;8795;-72
2022/01/18 05:08:39;;;;;;;;;0.00;0.00;;;;;15.48;52.14;103917.69;4972302;28;8787;-73
2022/01/18 05:11:06;;;;;;;;;0.00;0.00;;;;;15.47;52.38;103915.00;4971529;28;9292;-73
2022/01/18 05:21:34;;;;;;;;;0.00;0.00;;;;;15.46;52.13;103911.47;4972065;28;8803;-73
2022/01/18 05:24:00;;;;;;;;;0.00;0.00;;;;;15.47;52.11;103909.75;4972182;28;9353;-73
2022/01/18 05:26:28;;;;;;;;;0.00;0.00;;;;;15.48;51.98;103901.91;4971530;28;9278;-73
2022/01/18 05:28:54;;;;;;;;;0.00;0.00;;;;;15.47;52.00;103912.38;4971478;28;9192;-73
2022/01/18 05:31:19;;;;;;;;;0.00;0.00;;;;;15.47;51.79;103905.38;4972042;28;9284;-72
2022/01/18 05:33:46;;;;;;;;;0.00;0.00;;;;;15.48;51.80;103911.56;4970851;28;8783;-72
2022/01/18 05:36:12;;;;;;;;;0.00;0.00;;;;;15.46;51.91;103910.56;4971766;28;8795;-72
2022/01/18 05:38:38;;;;;;;;;0.00;0.00;;;;;15.44;51.76;103909.59;4972002;28;9271;-72
2022/01/18 05:41:05;;;;;;;;;0.00;0.00;;;;;15.47;51.98;103912.38;4974896;28;8795;-72
2022/01/18 05:43:31;;;;;;;;;0.00;0.00;;;;;15.46;51.67;103907.94;4975497;28;9335;-73
2022/01/18 05:45:56;;;;;;;;;0.00;0.00;;;;;15.49;51.69;103916.00;4974244;28;9401;-73
2022/01/18 05:48:23;;;;;;;;;0.00;0.00;;;;;15.47;51.79;103921.19;4975383;28;8886;-73
2022/01/18 05:50:48;;;;;;;;;0.00;0.00;;;;;15.49;51.92;103921.28;4974676;28;8868;-73
2022/01/18 05:53:13;;;;;;;;;0.00;0.00;;;;;15.51;51.67;103913.47;4974495;28;9361;-73
2022/01/18 05:55:39;;;;;;;;;0.67;0.67;;;;;15.54;51.43;103914.53;4975454;28;8810;-73
2022/01/18 05:58:04;;;;;;;;;0.00;0.00;;;;;15.55;53.13;103908.44;4975433;28;9573;-77
2022/01/18 06:00:31;;;;;;;;;2.67;1.00;;;;;15.71;58.22;103910.09;4974010;28;8855;-76
2022/01/18 06:08:08;;;;;;;;;4.75;3.25;;;;;16.09;63.84;103912.84;4974283;28;8775;-76
2022/01/18 06:10:33;;;;;;;;;3.75;1.75;;;;;16.16;63.21;103912.31;4974768;28;9524;-75
2022/01/18 06:13:03;;;;;;;;;4.50;4.25;;;;;16.23;64.90;103910.88;4974548;28;9404;-76
2022/01/18 06:15:30;;;;;;;;;3.00;3.00;;;;;16.26;67.72;103911.94;4974197;28;8783;-76
2022/01/18 06:20:21;;;;;;;;;9.75;4.75;;;;;16.29;67.30;103906.81;4969174;23;9551;-77
2022/01/18 06:22:46;;;;;;;;;5.50;2.50;;;;;16.25;66.49;103904.84;4954237;28;9668;-74
2022/01/18 06:25:12;;;;;;;;;2.00;1.00;;;;;16.19;66.58;103904.56;4955185;28;8805;-75
2022/01/18 06:27:37;;;;;;;;;6.00;4.75;;;;;16.16;66.68;103914.06;4955605;28;8817;-77
2022/01/18 06:30:09;;;;;;;;;3.75;3.50;;;;;16.12;66.68;103906.84;4954272;28;9680;-76
2022/01/18 06:32:36;;;;;;;;;3.75;3.00;;;;;16.10;66.38;103911.13;4955227;28;8798;-76
2022/01/18 06:35:01;;;;;;;;;2.25;2.25;;;;;16.07;66.72;103909.25;4954306;28;9495;-75
2022/01/18 06:37:27;;;;;;;;;3.50;2.00;;;;;16.05;66.30;103907.34;4955049;28;9467;-74
2022/01/18 06:39:53;;;;;;;;;2.50;2.25;;;;;16.06;66.08;103910.06;4954792;28;8801;-74
2022/01/18 06:42:18;;;;;;;;;3.00;3.00;;;;;16.04;65.30;103903.84;4954133;28;8782;-74
2022/01/18 06:44:44;;;;;;;;;2.50;2.25;;;;;16.02;65.66;103912.47;4954425;28;9551;-74
2022/01/18 06:47:09;;;;;;;;;2.00;2.00;;;;;16.00;65.33;103907.16;4954940;28;8801;-74
2022/01/18 06:49:34;;;;;;;;;4.67;2.00;;;;;16.00;65.19;103915.06;4954093;28;8793;-74
2022/01/18 06:52:00;;;;;;;;;3.00;3.00;;;;;15.99;65.36;103909.69;4954605;28;8810;-73
2022/01/18 06:54:25;;;;;;;;;3.50;3.00;;;;;15.96;64.78;103910.47;4954760;28;8892;-73
2022/01/18 06:56:50;;;;;;;;;3.50;3.50;;;;;15.94;64.47;103909.47;4960626;23;8861;-73
2022/01/18 06:59:17;;;;;;;;;4.67;2.67;;;;;15.91;63.94;103915.50;4954669;28;8790;-73
2022/01/18 07:01:42;;;;;;;;;2.50;2.50;;;;;15.92;63.86;103919.97;4954589;28;8794;-73
2022/01/18 07:04:08;;;;;;;;;2.00;2.00;;;;;15.89;63.40;103913.63;4953616;28;9450;-73
2022/01/18 07:06:34;;;;;;;;;3.00;2.00;;;;;15.90;63.67;103926.88;4954826;28;8797;-73
2022/01/18 07:09:01;;;;;;;;;1.00;1.00;;;;;15.88;62.93;103920.63;4954345;28;8797;-74
2022/01/18 07:11:26;;;;;;;;;2.33;2.00;;;;;15.87;62.82;103921.47;4953876;28;9358;-74
2022/01/18 07:13:52;;;;;;;;;3.75;3.75;;;;;15.89;62.60;103929.44;4954006;28;9407;-74
2022/01/18 07:16:18;;;;;;;;;4.00;3.25;;;;;15.84;62.26;103923.94;4954518;28;8854;-74
2022/01/18 07:18:43;;;;;;;;;2.00;2.00;;;;;15.83;62.17;103927.41;4953206;28;8805;-73
2022/01/18 07:21:09;;;;;;;;;2.33;2.33;;;;;15.83;61.75;103922.13;4954386;28;8797;-74
2022/01/18 07:23:35;;;;;;;;;2.50;1.00;;;;;15.84;61.75;103925.69;4954375;28;8782;-74
2022/01/18 07:26:01;;;;;;;;;2.00;2.00;;;;;15.85;61.86;103915.22;4953345;28;8793;-74
2022/01/18 07:28:26;;;;;;;;;1.00;1.00;;;;;15.85;61.25;103935.41;4954066;28;9387;-74
2022/01/18 07:30:51;;;;;;;;;0.67;0.67;;;;;15.82;61.12;103933.50;4953784;28;8868;-75
2022/01/18 07:33:17;;;;;;;;;2.00;2.00;;;;;15.79;61.06;103935.97;4952836;28;8805;-75
2022/01/18 07:35:43;;;;;;;;;3.67;1.67;;;;;15.79;60.78;103935.06;4953830;28;8821;-74
2022/01/18 07:38:12;;;;;;;;;1.67;1.67;;;;;15.80;60.71;103940.44;4953919;28;8816;-73
2022/01/18 07:40:39;;;;;;;;;1.67;1.67;;;;;15.77;60.26;103937.66;4953455;28;9304;-73
2022/01/18 07:43:04;;;;;;;;;2.00;1.33;;;;;15.78;60.01;103939.44;4953689;28;9133;-74
2022/01/18 07:45:33;;;;;;;;;4.33;1.67;;;;;15.73;60.03;103946.22;4953052;28;9323;-74
2022/01/18 07:47:58;;;;;;;;;2.33;1.67;;;;;15.73;59.74;103938.31;4953147;28;8861;-74
2022/01/18 07:50:25;;;;;;;;;1.00;1.00;;;;;15.77;59.44;103942.00;4953613;28;9274;-74
2022/01/18 07:52:51;;;;;;;;;0.67;0.67;;;;;15.75;59.56;103938.38;4952197;28;9534;-74
2022/01/18 07:55:17;;;;;;;;;1.00;1.00;;;;;15.77;59.47;103942.00;4953087;28;9209;-73
2022/01/18 07:57:45;;;;;;;;;2.00;2.00;;;;;15.72;59.23;103946.13;4953308;28;8845;-74
2022/01/18 08:00:17;;;;;;;;;2.00;2.00;;;;;15.75;58.88;103941.00;4953094;28;9619;-74
2022/01/18 08:02:43;;;;;;;;;2.00;2.00;;;;;15.73;58.82;103940.97;4958967;23;9287;-74
2022/01/18 08:05:11;;;;;;;;;1.00;1.00;;;;;15.71;58.91;103947.84;4953592;28;9122;-74
2022/01/18 08:07:36;;;;;;;;;1.67;1.67;;;;;15.72;58.58;103949.69;4952733;28;9331;-74
2022/01/18 08:10:05;;;;;;;;;2.00;0.00;;;;;15.75;58.67;103947.19;4953187;28;9223;-74
2022/01/18 08:12:31;;;;;;;;;2.00;1.75;;;;;15.71;58.39;103944.34;4953250;28;8782;-74
2022/01/18 08:15:02;;;;;;;;;1.33;1.33;;;;;15.70;58.24;103946.06;4952194;28;9491;-74
2022/01/18 08:17:27;;;;;;;;;1.00;1.00;;;;;15.68;58.02;103941.53;4953574;28;8802;-73
2022/01/18 08:19:53;;;;;;;;;0.67;0.67;;;;;15.72;58.20;103951.41;4952829;28;9106;-74
2022/01/18 08:22:18;;;;;;;;;0.00;0.00;;;;;15.67;57.96;103945.91;4952457;28;8814;-75
2022/01/18 08:24:43;;;;;;;;;1.00;1.00;;;;;15.68;57.75;103950.34;4952747;28;8801;-73
2022/01/18 08:27:09;;;;;;;;;2.00;1.00;;;;;15.66;57.68;103957.28;4953151;28;8829;-73
2022/01/18 08:29:36;;;;;;;;;1.67;1.67;;;;;15.63;57.46;103946.59;4952358;28;8812;-73
2022/01/18 08:32:03;;;;;;;;;2.00;1.00;;;;;15.62;57.41;103950.06;4952966;28;9661;-74
2022/01/18 08:34:28;;;;;;;;;2.25;1.75;;;;;15.64;57.51;103950.09;4952757;28;9268;-73
2022/01/18 08:36:53;;;;;;;;;2.00;2.00;;;;;15.66;57.45;103959.00;4952487;28;9451;-74
2022/01/18 08:39:19;;;;;;;;;1.00;1.00;;;;;15.69;57.13;103959.16;4953090;28;8806;-73
2022/01/18 08:41:45;;;;;;;;;2.25;1.25;;;;;15.64;56.93;103950.09;4952265;28;8888;-73
2022/01/18 08:44:10;;;;;;;;;1.00;1.00;;;;;15.65;57.07;103959.81;4952763;28;9566;-74
2022/01/18 08:46:35;;;;;;;;;1.67;1.33;;;;;15.65;56.62;103962.47;4953035;28;9513;-73
2022/01/18 08:49:04;;;;;;;;;0.67;0.67;;;;;15.62;56.66;103968.50;4952161;28;8804;-73
2022/01/18 08:51:29;;;;;;;;;1.75;1.75;;;;;15.64;56.61;103963.28;4952978;28;8868;-73
2022/01/18 08:53:54;;;;;;;;;2.00;2.00;;;;;15.65;56.41;103957.19;4952767;29;9410;-74
2022/01/18 08:56:21;;;;;;;;;1.50;1.00;;;;;15.60;56.52;103962.22;4952155;28;8880;-74
2022/01/18 08:58:48;;;;;;;;;1.67;1.67;;;;;15.62;56.90;103960.59;4952484;28;8913;-73
2022/01/18 09:01:14;;;;;;;;;2.00;2.00;;;;;15.65;56.39;103962.47;4953122;29;9253;-74
2022/01/18 09:03:40;;;;;;;;;1.00;1.00;;;;;15.60;56.30;103962.22;4951636;28;9386;-75
2022/01/18 09:06:06;;;;;;;;;1.67;1.67;;;;;15.62;56.07;103952.69;4952691;29;9298;-74
2022/01/18 09:08:34;;;;;;;;;1.50;1.00;;;;;15.63;56.28;103958.88;4952753;28;8810;-74
2022/01/18 09:10:59;;;;;;;;;1.00;1.00;;;;;15.62;56.27;103960.59;4951770;28;9563;-74
2022/01/18 09:13:24;;;;;;;;;3.00;3.00;;;;;15.64;55.98;103972.09;4952475;28;9443;-75
2022/01/18 09:15:53;;;;;;;;;2.00;2.00;;;;;15.65;55.75;103970.38;4956071;28;8790;-74
2022/01/18 09:18:18;;;;;;;;;3.00;2.25;;;;;15.62;55.86;103971.13;4955571;28;9558;-74
2022/01/18 09:20:44;;;;;;;;;1.25;1.25;;;;;15.63;55.89;103974.66;4956026;28;9540;-74
2022/01/18 09:23:10;;;;;;;;;1.75;1.75;;;;;15.61;55.66;103977.22;4956210;28;8844;-74
2022/01/18 09:25:36;;;;;;;;;1.00;0.33;;;;;15.61;55.91;103971.03;4955568;28;8778;-74
2022/01/18 09:28:02;;;;;;;;;0.33;0.33;;;;;15.61;55.81;103971.94;4956126;28;8839;-73
2022/01/18 09:30:30;;;;;;;;;2.00;2.00;;;;;15.61;55.71;103969.31;4955814;28;9463;-73
2022/01/18 09:32:56;;;;;;;;;1.00;1.00;;;;;15.60;55.69;103964.84;4955102;28;9257;-74
2022/01/18 09:35:25;;;;;;;;;1.00;1.00;;;;;15.62;55.68;103962.31;4956038;28;9265;-74
2022/01/18 09:38:12;;;;;;;;;1.00;1.00;;;;;15.62;55.63;103968.50;4955043;28;9975;-74
2022/01/18 09:40:38;;;;;;;;;2.50;2.50;;;;;15.60;55.57;103971.84;4956144;28;9342;-73
2022/01/18 09:43:10;;;;;;;;;1.67;1.33;;;;;15.63;55.41;103967.66;4955849;28;9356;-73
2022/01/18 09:45:36;;;;;;;;;2.00;2.00;;;;;15.61;55.13;103963.13;4955190;28;9303;-73
2022/01/18 09:48:03;;;;;;;;;1.00;0.00;;;;;15.59;55.43;103973.59;4955739;28;9274;-73
2022/01/18 09:50:33;;;;;;;;;1.67;1.67;;;;;15.61;55.52;103968.41;4955593;28;8834;-74
2022/01/18 09:53:00;;;;;;;;;1.00;0.00;;;;;15.64;55.35;103974.72;4954683;28;9281;-73
2022/01/18 09:55:29;;;;;;;;;3.33;2.33;;;;;15.66;54.95;103974.81;4955976;28;9285;-73
2022/01/18 09:57:56;;;;;;;;;0.00;0.00;;;;;15.62;55.32;103968.50;4955360;28;9406;-73
2022/01/18 10:00:25;;;;;;;;;1.67;1.67;;;;;15.62;55.25;103979.03;4955068;28;9352;-73
2022/01/18 10:02:50;;;;;;;;;1.00;1.00;;;;;15.65;55.15;103979.16;4955442;28;9463;-73
2022/01/18 10:05:25;;;;;;;;;0.33;0.33;;;;;15.61;55.19;103979.84;4955343;28;9327;-73
2022/01/18 10:08:02;;;;;;;;;1.00;1.00;;;;;15.60;55.13;103983.28;4954824;28;8800;-74
2022/01/18 10:10:55;;;;;;;;;3.00;3.00;;;;;15.59;55.20;103975.34;4955544;28;9506;-74
2022/01/18 10:13:27;;;;;;;;;2.00;2.00;;;;;15.61;55.05;103977.22;4952774;28;9334;-73
2022/01/18 10:16:08;;;;;;;;;1.00;1.00;;;;;15.61;55.01;103977.22;4954978;28;9480;-73
2022/01/18 10:18:47;;;;;;;;;2.33;2.33;;;;;15.63;55.07;103975.56;4955285;28;9375;-73
2022/01/18 10:21:35;;;;;;;;;1.00;1.00;;;;;15.62;54.91;103968.50;4954835;28;9362;-73
2022/01/18 10:24:17;;;;;;;;;2.00;2.00;;;;;15.61;55.12;103968.41;4954754;28;9280;-73
2022/01/18 10:26:45;;;;;;;;;1.25;1.25;;;;;15.59;55.17;103970.97;4955079;28;9277;-74
2022/01/18 10:29:15;;;;;;;;;2.00;2.00;;;;;15.60;55.07;103978.03;4954287;28;9424;-73
2022/01/18 10:34:29;;;;;;;;;0.33;0.33;;;;;15.63;54.92;103972.03;4954271;28;10179;-73
2022/01/18 10:37:02;;;;;;;;;1.00;1.00;;;;;15.62;54.93;103962.31;4954769;28;9221;-73
2022/01/18 10:39:32;;;;;;;;;1.67;1.67;;;;;15.61;54.78;103961.41;4954931;28;9331;-73
2022/01/18 10:41:59;;;;;;;;;1.00;1.00;;;;;15.63;54.98;103979.94;4953710;28;10062;-74
2022/01/18 10:44:25;;;;;;;;;3.00;2.00;;;;;15.62;54.89;103972.84;4954935;28;9354;-74
2022/01/18 10:46:56;;;;;;;;;1.00;1.00;;;;;15.61;54.96;103971.94;4954342;28;9406;-73
2022/01/18 10:49:51;;;;;;;;;1.67;1.67;;;;;15.65;54.98;103973.91;4954256;28;9197;-73
2022/01/18 10:52:22;;;;;;;;;1.00;1.00;;;;;15.63;55.00;103969.41;4952480;28;10089;-72
2022/01/18 10:54:56;;;;;;;;;2.00;2.00;;;;;15.64;54.87;103971.19;4954563;28;9122;-74
2022/01/18 10:57:29;;;;;;;;;2.00;2.00;;;;;15.59;55.04;103965.72;4954069;28;9239;-74
2022/01/18 11:00:07;;;;;;;;;1.67;1.67;;;;;15.59;54.92;103963.06;4954346;28;9271;-74
2022/01/18 11:02:34;;;;;;;;;2.00;2.00;;;;;15.62;54.86;103962.31;4953986;28;9374;-74
2022/01/18 11:05:02;;;;;;;;;4.00;3.00;;;;;15.65;54.80;103959.81;4954463;28;9303;-73
2022/01/18 11:07:28;;;;;;;;;2.00;2.00;;;;;15.66;55.01;103964.28;4954331;28;9338;-73
2022/01/18 11:10:04;;;;;;;;;2.33;2.33;;;;;15.65;54.76;103957.19;4953509;28;9472;-73
2022/01/18 11:12:31;;;;;;;;;2.00;2.00;;;;;15.65;54.79;103957.19;4954629;28;11541;-73
2022/01/18 11:15:04;;;;;;;;;3.00;3.00;;;;;15.63;55.06;103956.22;4954495;28;9346;-73
2022/01/18 11:17:38;;;;;;;;;2.00;2.00;;;;;15.61;55.20;103958.78;4953694;28;9347;-73
2022/01/18 11:20:05;;;;;;;;;3.00;3.00;;;;;15.62;54.90;103947.41;4953797;28;9272;-73
2022/01/18 11:22:30;;;;;;;;;3.67;3.67;;;;;15.65;54.91;103947.56;4954081;28;9344;-73
2022/01/18 11:24:58;;;;;;;;;2.00;2.00;;;;;15.63;55.00;103943.97;4953050;28;9290;-73
2022/01/18 11:27:24;;;;;;;;;3.00;2.67;;;;;15.62;54.88;103947.41;4953935;28;8781;-74
2022/01/18 11:29:49;;;;;;;;;3.00;3.00;;;;;15.62;54.88;103950.06;4953494;28;9408;-73
2022/01/18 11:32:16;;;;;;;;;3.00;3.00;;;;;15.64;55.03;103939.56;4953591;28;8924;-74
2022/01/18 11:34:55;;;;;;;;;1.00;1.00;;;;;15.64;55.03;103945.75;4954168;28;8820;-74
2022/01/18 11:37:30;;;;;;;;;4.00;4.00;;;;;15.63;55.11;103946.59;4953065;28;9421;-73
2022/01/18 11:40:05;;;;;;;;;3.00;3.00;;;;;15.66;55.10;103943.22;4953799;28;10143;-73
2022/01/18 11:42:51;;;;;;;;;4.00;4.00;;;;;15.63;55.05;103940.44;4953518;28;9361;-73
2022/01/18 11:45:25;;;;;;;;;5.00;3.75;;;;;15.64;55.19;103944.84;4953122;28;9436;-74
2022/01/18 11:48:20;;;;;;;;;3.00;3.00;;;;;15.64;55.11;103943.13;4953433;28;9324;-73
2022/01/18 11:50:49;;;;;;;;;5.50;4.25;;;;;15.63;55.26;103940.44;4953102;28;9611;-74
2022/01/18 11:53:23;;;;;;;;;3.00;3.00;;;;;15.64;55.24;103937.84;4952702;28;9479;-73
2022/01/18 11:55:50;;;;;;;;;3.00;3.00;;;;;15.67;54.88;103939.75;4952963;28;10176;-73
2022/01/18 11:58:16;;;;;;;;;2.50;2.50;;;;;15.64;55.09;103929.94;4953106;28;9574;-73
2022/01/18 12:01:08;;;;;;;;;4.00;4.00;;;;;15.67;55.09;103930.09;4952425;28;9495;-73
2022/01/18 12:03:45;;;;;;;;;3.75;3.75;;;;;15.68;54.97;103936.28;4951482;28;8821;-73
2022/01/18 12:06:11;;;;;;;;;6.00;6.00;;;;;15.64;54.96;103932.59;4952885;28;9513;-73
2022/01/18 12:08:45;;;;;;;;;5.00;5.00;;;;;15.62;55.20;103933.34;4953458;28;9576;-73
2022/01/18 12:11:33;;;;;;;;;5.00;5.00;;;;;15.64;55.10;103926.41;4953302;28;8845;-73
2022/01/18 12:14:00;;;;;;;;;3.25;3.25;;;;;15.68;55.05;103929.28;4952325;28;9493;-73
2022/01/18 12:16:29;;;;;;;;;4.00;4.00;;;;;15.67;55.08;103931.84;4953202;28;9568;-73
2022/01/18 12:19:06;;;;;;;;;3.25;3.25;;;;;15.69;55.12;103932.81;4952865;28;9345;-73
2022/01/18 12:21:34;;;;;;;;;4.00;3.00;;;;;15.64;54.99;103918.50;4952614;28;9648;-73
2022/01/18 12:24:22;;;;;;;;;4.50;4.00;;;;;15.68;55.05;103924.00;4952964;28;9490;-73
2022/01/18 12:26:58;;;;;;;;;5.00;5.00;;;;;15.70;55.09;103921.47;4951926;28;9478;-74
2022/01/18 12:29:41;;;;;;;;;4.00;4.00;;;;;15.68;54.98;103916.09;4952799;28;9368;-73
2022/01/18 12:34:45;;;;;;;;;3.33;3.33;;;;;15.67;55.19;103914.28;4952125;28;9548;-73
2022/01/18 12:37:24;;;;;;;;;5.25;3.75;;;;;15.68;55.16;103915.19;4952994;28;9401;-73
2022/01/18 12:39:49;;;;;;;;;4.00;4.00;;;;;15.70;55.14;103919.75;4952772;29;9422;-73
2022/01/18 12:44:20;;;;;;;;;6.00;5.00;;;;;15.65;55.11;103915.97;4952301;29;9465;-73
2022/01/18 12:45:26;;;;;;;;;2.50;2.50;;;;;15.70;55.42;103914.47;4952572;29;8841;-73
2022/01/18 12:47:59;;;;;;;;;4.00;4.00;;;;;15.68;55.36;103908.19;4952248;28;10482;-73
2022/01/18 12:50:37;;;;;;;;;4.50;4.00;;;;;15.68;55.13;103902.94;4956866;28;9659;-73